sensor_id;sensor_type;location;lat;lon;timestamp;temperature;humidity
30300;DHT22;17110;52.602;12.998;2023-04-03T00:01:55;0.80;99.90
30300;DHT22;17110;52.602;12.998;2023-04-03T00:04:39;0.70;99.90
30300;DHT22;17110;52.602;12.998;2023-04-03T00:07:08;0.70;99.90
30300;DHT22;17110;52.602;12.998;2023-04-03T00:09:39;0.70;99.90
30300;DHT22;17110;52.602;12.998;2023-04-03T00:15:01;0.60;99.90
30300;DHT22;17110;52.602;12.998;2023-04-03T00:17:38;0.60;99.90
30300;DHT22;17110;52.602;12.998;2023-04-03T00:20:24;0.60;99.90
30300;DHT22;17110;52.602;12.998;2023-04-03T00:23:00;0.50;99.90
30300;DHT22;17110;52.602;12.998;2023-04-03T00:31:29;0.50;99.90
30300;DHT22;17110;52.602;12.998;2023-04-03T00:34:27;0.50;99.90
30300;DHT22;17110;52.602;12.998;2023-04-03T00:40:05;0.50;99.90
30300;DHT22;17110;52.602;12.998;2023-04-03T00:42:32;0.40;99.90
30300;DHT22;17110;52.602;12.998;2023-04-03T00:47:27;0.30;99.90
30300;DHT22;17110;52.602;12.998;2023-04-03T00:49:53;0.20;99.90
30300;DHT22;17110;52.602;12.998;2023-04-03T00:52:29;0.20;99.90
30300;DHT22;17110;52.602;12.998;2023-04-03T00:54:59;0.20;99.90
30300;DHT22;17110;52.602;12.998;2023-04-03T00:57:30;0.10;99.90
30300;DHT22;17110;52.602;12.998;2023-04-03T01:00:08;0.10;99.90
30300;DHT22;17110;52.602;12.998;2023-04-03T01:02:39;-0.10;99.90
30300;DHT22;17110;52.602;12.998;2023-04-03T01:05:07;0.00;99.90
30300;DHT22;17110;52.602;12.998;2023-04-03T01:07:33;0.00;99.90
30300;DHT22;17110;52.602;12.998;2023-04-03T01:10:05;-0.10;99.90
30300;DHT22;17110;52.602;12.998;2023-04-03T01:12:36;0.00;99.90
30300;DHT22;17110;52.602;12.998;2023-04-03T01:15:08;0.00;99.90
30300;DHT22;17110;52.602;12.998;2023-04-03T01:20:30;-0.10;99.90
30300;DHT22;17110;52.602;12.998;2023-04-03T01:25:28;0.10;99.90
30300;DHT22;17110;52.602;12.998;2023-04-03T01:27:54;0.00;99.90
30300;DHT22;17110;52.602;12.998;2023-04-03T01:30:24;-0.10;99.90
30300;DHT22;17110;52.602;12.998;2023-04-03T01:32:51;0.00;99.90
30300;DHT22;17110;52.602;12.998;2023-04-03T01:35:17;-0.10;99.90
30300;DHT22;17110;52.602;12.998;2023-04-03T01:37:43;0.10;99.90
30300;DHT22;17110;52.602;12.998;2023-04-03T01:40:11;-0.10;99.90
30300;DHT22;17110;52.602;12.998;2023-04-03T01:42:39;0.10;99.90
30300;DHT22;17110;52.602;12.998;2023-04-03T01:45:05;-0.10;99.90
30300;DHT22;17110;52.602;12.998;2023-04-03T01:47:31;-0.20;99.90
30300;DHT22;17110;52.602;12.998;2023-04-03T01:50:00;-0.20;99.90
30300;DHT22;17110;52.602;12.998;2023-04-03T01:52:26;-0.30;99.90
30300;DHT22;17110;52.602;12.998;2023-04-03T01:54:51;-0.40;99.90
30300;DHT22;17110;52.602;12.998;2023-04-03T01:57:17;-0.50;99.90
30300;DHT22;17110;52.602;12.998;2023-04-03T01:59:43;-0.50;99.90
30300;DHT22;17110;52.602;12.998;2023-04-03T02:02:09;-0.70;99.90
30300;DHT22;17110;52.602;12.998;2023-04-03T02:04:37;-0.70;99.90
30300;DHT22;17110;52.602;12.998;2023-04-03T02:07:03;-0.80;99.90
30300;DHT22;17110;52.602;12.998;2023-04-03T02:09:29;-0.90;99.90
30300;DHT22;17110;52.602;12.998;2023-04-03T02:11:56;-1.00;99.90
30300;DHT22;17110;52.602;12.998;2023-04-03T02:14:24;-1.10;99.90
30300;DHT22;17110;52.602;12.998;2023-04-03T02:16:52;-1.20;99.90
30300;DHT22;17110;52.602;12.998;2023-04-03T02:19:18;-1.30;99.90
30300;DHT22;17110;52.602;12.998;2023-04-03T02:21:44;-1.30;99.90
30300;DHT22;17110;52.602;12.998;2023-04-03T02:24:10;-1.30;99.90
30300;DHT22;17110;52.602;12.998;2023-04-03T02:26:36;-1.20;99.90
30300;DHT22;17110;52.602;12.998;2023-04-03T02:29:05;-1.20;99.90
30300;DHT22;17110;52.602;12.998;2023-04-03T02:31:31;-1.30;99.90
30300;DHT22;17110;52.602;12.998;2023-04-03T02:33:56;-1.30;99.90
30300;DHT22;17110;52.602;12.998;2023-04-03T02:36:22;-1.20;99.90
30300;DHT22;17110;52.602;12.998;2023-04-03T02:38:48;-1.10;99.90
30300;DHT22;17110;52.602;12.998;2023-04-03T02:41:14;-1.10;99.90
30300;DHT22;17110;52.602;12.998;2023-04-03T02:43:40;-1.10;99.90
30300;DHT22;17110;52.602;12.998;2023-04-03T02:46:06;-1.10;99.90
30300;DHT22;17110;52.602;12.998;2023-04-03T02:48:32;-1.10;99.90
30300;DHT22;17110;52.602;12.998;2023-04-03T02:50:58;-1.20;99.90
30300;DHT22;17110;52.602;12.998;2023-04-03T02:53:24;-1.30;99.90
30300;DHT22;17110;52.602;12.998;2023-04-03T02:55:49;-1.20;99.90
30300;DHT22;17110;52.602;12.998;2023-04-03T02:58:15;-1.20;99.90
30300;DHT22;17110;52.602;12.998;2023-04-03T03:00:41;-1.20;99.90
30300;DHT22;17110;52.602;12.998;2023-04-03T03:03:07;-1.20;99.90
30300;DHT22;17110;52.602;12.998;2023-04-03T03:05:34;-1.20;99.90
30300;DHT22;17110;52.602;12.998;2023-04-03T03:08:00;-1.20;99.90
30300;DHT22;17110;52.602;12.998;2023-04-03T03:10:26;-1.10;99.90
30300;DHT22;17110;52.602;12.998;2023-04-03T03:12:52;-1.20;99.90
30300;DHT22;17110;52.602;12.998;2023-04-03T03:15:17;-1.20;99.90
30300;DHT22;17110;52.602;12.998;2023-04-03T03:17:45;-1.10;99.90
30300;DHT22;17110;52.602;12.998;2023-04-03T03:20:12;-1.10;99.90
30300;DHT22;17110;52.602;12.998;2023-04-03T03:22:40;-1.10;99.90
30300;DHT22;17110;52.602;12.998;2023-04-03T03:25:06;-1.20;99.90
30300;DHT22;17110;52.602;12.998;2023-04-03T03:27:32;-1.10;99.90
30300;DHT22;17110;52.602;12.998;2023-04-03T03:29:58;-1.10;99.90
30300;DHT22;17110;52.602;12.998;2023-04-03T03:32:23;-1.10;99.90
30300;DHT22;17110;52.602;12.998;2023-04-03T03:34:49;-1.00;99.90
30300;DHT22;17110;52.602;12.998;2023-04-03T03:37:15;-1.20;99.90
30300;DHT22;17110;52.602;12.998;2023-04-03T03:39:40;-1.10;99.90
30300;DHT22;17110;52.602;12.998;2023-04-03T03:42:06;-1.10;99.90
30300;DHT22;17110;52.602;12.998;2023-04-03T03:44:32;-1.00;99.90
30300;DHT22;17110;52.602;12.998;2023-04-03T03:46:57;-1.00;99.90
30300;DHT22;17110;52.602;12.998;2023-04-03T03:49:23;-1.20;99.90
30300;DHT22;17110;52.602;12.998;2023-04-03T03:51:48;-1.10;99.90
30300;DHT22;17110;52.602;12.998;2023-04-03T03:54:15;-1.10;99.90
30300;DHT22;17110;52.602;12.998;2023-04-03T03:56:41;-1.10;99.90
30300;DHT22;17110;52.602;12.998;2023-04-03T03:59:06;-1.10;99.90
30300;DHT22;17110;52.602;12.998;2023-04-03T04:01:32;-1.10;99.90
30300;DHT22;17110;52.602;12.998;2023-04-03T04:03:58;-1.30;99.90
30300;DHT22;17110;52.602;12.998;2023-04-03T04:06:23;-1.20;99.90
30300;DHT22;17110;52.602;12.998;2023-04-03T04:08:49;-1.20;99.90
30300;DHT22;17110;52.602;12.998;2023-04-03T04:11:15;-1.10;99.90
30300;DHT22;17110;52.602;12.998;2023-04-03T04:13:41;-1.10;99.90
30300;DHT22;17110;52.602;12.998;2023-04-03T04:16:07;-1.20;99.90
30300;DHT22;17110;52.602;12.998;2023-04-03T04:18:33;-1.10;99.90
30300;DHT22;17110;52.602;12.998;2023-04-03T04:20:59;-1.20;99.90
30300;DHT22;17110;52.602;12.998;2023-04-03T04:23:25;-1.30;99.90
30300;DHT22;17110;52.602;12.998;2023-04-03T04:25:51;-1.30;99.90
30300;DHT22;17110;52.602;12.998;2023-04-03T04:28:17;-1.40;99.90
30300;DHT22;17110;52.602;12.998;2023-04-03T04:30:42;-1.30;99.90
30300;DHT22;17110;52.602;12.998;2023-04-03T04:33:08;-1.50;99.90
30300;DHT22;17110;52.602;12.998;2023-04-03T04:35:34;-1.50;99.90
30300;DHT22;17110;52.602;12.998;2023-04-03T04:38:00;-1.60;99.90
30300;DHT22;17110;52.602;12.998;2023-04-03T04:40:27;-1.60;99.90
30300;DHT22;17110;52.602;12.998;2023-04-03T04:42:53;-1.60;99.90
30300;DHT22;17110;52.602;12.998;2023-04-03T04:45:18;-1.50;99.90
30300;DHT22;17110;52.602;12.998;2023-04-03T04:47:45;-1.50;99.90
30300;DHT22;17110;52.602;12.998;2023-04-03T04:50:11;-1.40;99.90
30300;DHT22;17110;52.602;12.998;2023-04-03T04:52:37;-1.20;99.90
30300;DHT22;17110;52.602;12.998;2023-04-03T04:55:04;-1.20;99.90
30300;DHT22;17110;52.602;12.998;2023-04-03T04:57:29;-1.20;99.90
30300;DHT22;17110;52.602;12.998;2023-04-03T04:59:55;-1.20;99.90
30300;DHT22;17110;52.602;12.998;2023-04-03T05:02:21;-1.10;99.90
30300;DHT22;17110;52.602;12.998;2023-04-03T05:04:46;-1.10;99.90
30300;DHT22;17110;52.602;12.998;2023-04-03T05:07:12;-1.00;99.90
30300;DHT22;17110;52.602;12.998;2023-04-03T05:09:38;-1.10;99.90
30300;DHT22;17110;52.602;12.998;2023-04-03T05:12:04;-0.90;99.90
30300;DHT22;17110;52.602;12.998;2023-04-03T05:14:30;-0.90;99.90
30300;DHT22;17110;52.602;12.998;2023-04-03T05:16:55;-0.90;99.90
30300;DHT22;17110;52.602;12.998;2023-04-03T05:19:21;-0.80;99.90
30300;DHT22;17110;52.602;12.998;2023-04-03T05:21:47;-0.80;99.90
30300;DHT22;17110;52.602;12.998;2023-04-03T05:24:14;-0.70;99.90
30300;DHT22;17110;52.602;12.998;2023-04-03T05:26:40;-0.60;99.90
30300;DHT22;17110;52.602;12.998;2023-04-03T05:29:06;-0.70;99.90
30300;DHT22;17110;52.602;12.998;2023-04-03T05:31:31;-0.60;99.90
30300;DHT22;17110;52.602;12.998;2023-04-03T05:33:57;-0.50;99.90
30300;DHT22;17110;52.602;12.998;2023-04-03T05:36:23;-0.40;99.90
30300;DHT22;17110;52.602;12.998;2023-04-03T05:38:49;-0.30;99.90
30300;DHT22;17110;52.602;12.998;2023-04-03T05:41:15;-0.10;99.90
30300;DHT22;17110;52.602;12.998;2023-04-03T05:43:41;-0.10;99.90
30300;DHT22;17110;52.602;12.998;2023-04-03T05:46:15;-0.10;99.90
30300;DHT22;17110;52.602;12.998;2023-04-03T05:48:41;0.20;99.90
30300;DHT22;17110;52.602;12.998;2023-04-03T05:51:14;0.60;99.90
30300;DHT22;17110;52.602;12.998;2023-04-03T05:53:41;1.00;99.90
30300;DHT22;17110;52.602;12.998;2023-04-03T05:56:07;1.20;99.90
30300;DHT22;17110;52.602;12.998;2023-04-03T05:58:33;1.50;99.90
30300;DHT22;17110;52.602;12.998;2023-04-03T06:00:59;1.50;99.90
30300;DHT22;17110;52.602;12.998;2023-04-03T06:03:25;1.60;99.90
30300;DHT22;17110;52.602;12.998;2023-04-03T06:05:51;1.60;99.90
30300;DHT22;17110;52.602;12.998;2023-04-03T06:08:17;1.80;99.90
30300;DHT22;17110;52.602;12.998;2023-04-03T06:10:43;1.90;99.90
30300;DHT22;17110;52.602;12.998;2023-04-03T06:13:11;2.20;99.90
30300;DHT22;17110;52.602;12.998;2023-04-03T06:16:12;2.40;99.90
30300;DHT22;17110;52.602;12.998;2023-04-03T06:55:04;6.20;99.90
30300;DHT22;17110;52.602;12.998;2023-04-03T07:01:13;7.00;99.90
30300;DHT22;17110;52.602;12.998;2023-04-03T07:06:51;7.50;99.90
30300;DHT22;17110;52.602;12.998;2023-04-03T07:12:04;7.00;99.90
30300;DHT22;17110;52.602;12.998;2023-04-03T07:15:04;7.30;99.90
30300;DHT22;17110;52.602;12.998;2023-04-03T07:17:33;6.80;99.90
30300;DHT22;17110;52.602;12.998;2023-04-03T07:20:39;8.00;99.90
30300;DHT22;17110;52.602;12.998;2023-04-03T07:23:46;8.10;99.90
30300;DHT22;17110;52.602;12.998;2023-04-03T07:29:38;7.10;99.90
30300;DHT22;17110;52.602;12.998;2023-04-03T07:32:18;6.10;99.90
30300;DHT22;17110;52.602;12.998;2023-04-03T07:34:50;5.00;99.90
30300;DHT22;17110;52.602;12.998;2023-04-03T07:40:21;5.30;99.90
30300;DHT22;17110;52.602;12.998;2023-04-03T07:42:47;6.70;99.90
30300;DHT22;17110;52.602;12.998;2023-04-03T07:55:36;6.50;99.90
30300;DHT22;17110;52.602;12.998;2023-04-03T08:06:37;6.70;99.90
30300;DHT22;17110;52.602;12.998;2023-04-03T08:09:03;5.70;99.90
30300;DHT22;17110;52.602;12.998;2023-04-03T08:11:39;5.00;99.90
30300;DHT22;17110;52.602;12.998;2023-04-03T08:14:08;4.60;99.90
30300;DHT22;17110;52.602;12.998;2023-04-03T08:16:45;4.30;99.90
30300;DHT22;17110;52.602;12.998;2023-04-03T08:19:15;4.10;99.90
30300;DHT22;17110;52.602;12.998;2023-04-03T08:22:14;4.10;99.90
30300;DHT22;17110;52.602;12.998;2023-04-03T08:25:01;4.20;99.90
30300;DHT22;17110;52.602;12.998;2023-04-03T08:27:38;4.30;99.90
30300;DHT22;17110;52.602;12.998;2023-04-03T08:30:30;4.20;99.90
30300;DHT22;17110;52.602;12.998;2023-04-03T08:33:27;3.80;99.90
30300;DHT22;17110;52.602;12.998;2023-04-03T08:40:00;4.20;99.90
30300;DHT22;17110;52.602;12.998;2023-04-03T08:45:49;4.70;99.90
30300;DHT22;17110;52.602;12.998;2023-04-03T08:48:52;4.80;99.90
30300;DHT22;17110;52.602;12.998;2023-04-03T08:51:22;4.40;99.90
30300;DHT22;17110;52.602;12.998;2023-04-03T08:54:14;4.10;99.90
30300;DHT22;17110;52.602;12.998;2023-04-03T08:57:05;4.30;99.90
30300;DHT22;17110;52.602;12.998;2023-04-03T08:59:35;4.40;99.90
30300;DHT22;17110;52.602;12.998;2023-04-03T09:02:26;4.30;99.90
30300;DHT22;17110;52.602;12.998;2023-04-03T09:08:07;4.60;99.90
30300;DHT22;17110;52.602;12.998;2023-04-03T09:10:40;4.90;99.90
30300;DHT22;17110;52.602;12.998;2023-04-03T09:16:20;6.30;99.90
30300;DHT22;17110;52.602;12.998;2023-04-03T09:22:31;8.30;99.90
30300;DHT22;17110;52.602;12.998;2023-04-03T09:25:11;7.00;99.90
30300;DHT22;17110;52.602;12.998;2023-04-03T09:28:03;6.30;99.90
30300;DHT22;17110;52.602;12.998;2023-04-03T09:30:39;6.00;99.90
30300;DHT22;17110;52.602;12.998;2023-04-03T09:33:05;5.70;99.90
30300;DHT22;17110;52.602;12.998;2023-04-03T09:38:42;5.00;99.90
30300;DHT22;17110;52.602;12.998;2023-04-03T09:41:16;5.10;99.90
30300;DHT22;17110;52.602;12.998;2023-04-03T09:43:53;5.20;99.90
30300;DHT22;17110;52.602;12.998;2023-04-03T09:46:42;5.00;99.90
30300;DHT22;17110;52.602;12.998;2023-04-03T09:49:31;5.10;99.90
30300;DHT22;17110;52.602;12.998;2023-04-03T09:55:47;5.40;99.90
30300;DHT22;17110;52.602;12.998;2023-04-03T10:44:20;6.60;99.90
30300;DHT22;17110;52.602;12.998;2023-04-03T10:54:34;7.70;99.90
30300;DHT22;17110;52.602;12.998;2023-04-03T10:57:05;7.60;99.90
30300;DHT22;17110;52.602;12.998;2023-04-03T11:05:07;9.10;99.90
30300;DHT22;17110;52.602;12.998;2023-04-03T11:07:45;9.00;99.90
30300;DHT22;17110;52.602;12.998;2023-04-03T11:10:20;10.40;99.40
30300;DHT22;17110;52.602;12.998;2023-04-03T11:12:52;10.40;99.60
30300;DHT22;17110;52.602;12.998;2023-04-03T11:15:22;9.00;99.80
30300;DHT22;17110;52.602;12.998;2023-04-03T11:17:55;8.00;99.90
30300;DHT22;17110;52.602;12.998;2023-04-03T11:20:31;7.10;99.90
30300;DHT22;17110;52.602;12.998;2023-04-03T11:23:04;7.00;99.90
30300;DHT22;17110;52.602;12.998;2023-04-03T11:25:36;6.60;99.90
30300;DHT22;17110;52.602;12.998;2023-04-03T11:28:09;6.50;99.90
30300;DHT22;17110;52.602;12.998;2023-04-03T11:39:25;7.30;99.90
30300;DHT22;17110;52.602;12.998;2023-04-03T11:44:34;6.90;99.90
30300;DHT22;17110;52.602;12.998;2023-04-03T11:47:07;6.90;99.90
30300;DHT22;17110;52.602;12.998;2023-04-03T11:49:57;6.40;99.90
30300;DHT22;17110;52.602;12.998;2023-04-03T12:16:25;6.20;99.90
30300;DHT22;17110;52.602;12.998;2023-04-03T12:18:59;6.10;99.90
30300;DHT22;17110;52.602;12.998;2023-04-03T12:43:18;6.30;99.90
30300;DHT22;17110;52.602;12.998;2023-04-03T12:48:48;6.10;99.90
30300;DHT22;17110;52.602;12.998;2023-04-03T12:51:19;6.40;99.90
30300;DHT22;17110;52.602;12.998;2023-04-03T12:53:47;6.40;99.90
30300;DHT22;17110;52.602;12.998;2023-04-03T12:56:23;5.70;99.90
30300;DHT22;17110;52.602;12.998;2023-04-03T12:58:51;5.70;99.90
30300;DHT22;17110;52.602;12.998;2023-04-03T13:01:20;6.00;99.90
30300;DHT22;17110;52.602;12.998;2023-04-03T13:03:55;6.80;99.90
30300;DHT22;17110;52.602;12.998;2023-04-03T13:06:27;7.00;99.90
30300;DHT22;17110;52.602;12.998;2023-04-03T13:08:58;6.50;99.90
30300;DHT22;17110;52.602;12.998;2023-04-03T13:11:38;6.40;99.90
30300;DHT22;17110;52.602;12.998;2023-04-03T13:14:19;5.80;99.90
30300;DHT22;17110;52.602;12.998;2023-04-03T13:17:04;6.20;99.90
30300;DHT22;17110;52.602;12.998;2023-04-03T13:19:34;6.30;99.90
30300;DHT22;17110;52.602;12.998;2023-04-03T13:22:08;6.40;99.90
30300;DHT22;17110;52.602;12.998;2023-04-03T13:24:36;6.40;99.90
30300;DHT22;17110;52.602;12.998;2023-04-03T13:27:04;6.30;99.90
30300;DHT22;17110;52.602;12.998;2023-04-03T13:29:34;6.20;99.90
30300;DHT22;17110;52.602;12.998;2023-04-03T13:32:03;6.90;99.90
30300;DHT22;17110;52.602;12.998;2023-04-03T13:34:38;6.50;99.90
30300;DHT22;17110;52.602;12.998;2023-04-03T13:37:28;5.80;99.90
30300;DHT22;17110;52.602;12.998;2023-04-03T13:42:36;6.30;99.90
30300;DHT22;17110;52.602;12.998;2023-04-03T13:45:22;6.00;99.90
30300;DHT22;17110;52.602;12.998;2023-04-03T13:47:53;6.40;99.90
30300;DHT22;17110;52.602;12.998;2023-04-03T13:50:25;5.90;99.90
30300;DHT22;17110;52.602;12.998;2023-04-03T13:53:11;6.60;99.90
30300;DHT22;17110;52.602;12.998;2023-04-03T13:55:54;6.00;99.90
30300;DHT22;17110;52.602;12.998;2023-04-03T13:58:27;6.30;99.90
30300;DHT22;17110;52.602;12.998;2023-04-03T14:04:01;5.80;99.90
30300;DHT22;17110;52.602;12.998;2023-04-03T14:06:35;5.90;99.90
30300;DHT22;17110;52.602;12.998;2023-04-03T14:09:02;5.90;99.90
30300;DHT22;17110;52.602;12.998;2023-04-03T14:11:30;5.80;99.90
30300;DHT22;17110;52.602;12.998;2023-04-03T14:14:01;5.70;99.90
30300;DHT22;17110;52.602;12.998;2023-04-03T14:16:32;5.70;99.90
30300;DHT22;17110;52.602;12.998;2023-04-03T14:18:58;5.60;99.90
30300;DHT22;17110;52.602;12.998;2023-04-03T14:21:24;5.60;99.90
30300;DHT22;17110;52.602;12.998;2023-04-03T14:23:50;5.50;99.90
30300;DHT22;17110;52.602;12.998;2023-04-03T14:26:19;5.90;99.90
30300;DHT22;17110;52.602;12.998;2023-04-03T14:28:47;6.00;99.90
30300;DHT22;17110;52.602;12.998;2023-04-03T14:31:14;6.00;99.90
30300;DHT22;17110;52.602;12.998;2023-04-03T14:33:41;5.90;99.90
30300;DHT22;17110;52.602;12.998;2023-04-03T14:36:16;6.10;99.90
30300;DHT22;17110;52.602;12.998;2023-04-03T14:38:43;5.90;99.90
30300;DHT22;17110;52.602;12.998;2023-04-03T14:41:14;6.30;99.90
30300;DHT22;17110;52.602;12.998;2023-04-03T14:43:41;6.00;99.90
30300;DHT22;17110;52.602;12.998;2023-04-03T14:46:16;6.10;99.90
30300;DHT22;17110;52.602;12.998;2023-04-03T14:48:42;5.80;99.90
30300;DHT22;17110;52.602;12.998;2023-04-03T14:51:11;5.50;99.90
30300;DHT22;17110;52.602;12.998;2023-04-03T14:53:37;5.00;99.90
30300;DHT22;17110;52.602;12.998;2023-04-03T14:56:10;5.40;99.90
30300;DHT22;17110;52.602;12.998;2023-04-03T14:58:36;5.40;99.90
30300;DHT22;17110;52.602;12.998;2023-04-03T15:01:02;5.60;99.90
30300;DHT22;17110;52.602;12.998;2023-04-03T15:03:28;5.00;99.90
30300;DHT22;17110;52.602;12.998;2023-04-03T15:05:56;5.70;99.90
30300;DHT22;17110;52.602;12.998;2023-04-03T15:08:26;5.60;99.90
30300;DHT22;17110;52.602;12.998;2023-04-03T15:10:56;5.40;99.90
30300;DHT22;17110;52.602;12.998;2023-04-03T15:13:23;5.00;99.90
30300;DHT22;17110;52.602;12.998;2023-04-03T15:15:50;5.10;99.90
30300;DHT22;17110;52.602;12.998;2023-04-03T15:18:28;5.80;99.90
30300;DHT22;17110;52.602;12.998;2023-04-03T15:21:01;6.20;99.90
30300;DHT22;17110;52.602;12.998;2023-04-03T15:23:27;6.50;99.90
30300;DHT22;17110;52.602;12.998;2023-04-03T15:25:57;6.20;99.90
30300;DHT22;17110;52.602;12.998;2023-04-03T15:28:28;6.40;99.90
30300;DHT22;17110;52.602;12.998;2023-04-03T15:30:54;6.40;99.90
30300;DHT22;17110;52.602;12.998;2023-04-03T15:33:20;6.40;99.90
30300;DHT22;17110;52.602;12.998;2023-04-03T15:35:56;6.20;99.90
30300;DHT22;17110;52.602;12.998;2023-04-03T15:38:22;6.00;99.90
30300;DHT22;17110;52.602;12.998;2023-04-03T15:40:47;5.70;99.90
30300;DHT22;17110;52.602;12.998;2023-04-03T15:43:14;5.90;99.90
30300;DHT22;17110;52.602;12.998;2023-04-03T15:45:40;5.20;99.90
30300;DHT22;17110;52.602;12.998;2023-04-03T15:48:07;5.30;99.90
30300;DHT22;17110;52.602;12.998;2023-04-03T15:50:34;5.80;99.90
30300;DHT22;17110;52.602;12.998;2023-04-03T15:53:00;5.50;99.90
30300;DHT22;17110;52.602;12.998;2023-04-03T15:55:32;4.80;99.90
30300;DHT22;17110;52.602;12.998;2023-04-03T15:58:01;5.30;99.90
30300;DHT22;17110;52.602;12.998;2023-04-03T16:00:30;4.80;99.90
30300;DHT22;17110;52.602;12.998;2023-04-03T16:03:08;5.30;99.90
30300;DHT22;17110;52.602;12.998;2023-04-03T16:05:37;5.00;99.90
30300;DHT22;17110;52.602;12.998;2023-04-03T16:08:07;5.10;99.90
30300;DHT22;17110;52.602;12.998;2023-04-03T16:10:39;4.90;99.90
30300;DHT22;17110;52.602;12.998;2023-04-03T16:13:14;5.10;99.90
30300;DHT22;17110;52.602;12.998;2023-04-03T16:15:43;4.80;99.90
30300;DHT22;17110;52.602;12.998;2023-04-03T16:18:19;5.10;99.90
30300;DHT22;17110;52.602;12.998;2023-04-03T16:20:48;5.10;99.90
30300;DHT22;17110;52.602;12.998;2023-04-03T16:23:16;5.30;99.90
30300;DHT22;17110;52.602;12.998;2023-04-03T16:25:42;4.80;99.90
30300;DHT22;17110;52.602;12.998;2023-04-03T16:28:12;5.10;99.90
30300;DHT22;17110;52.602;12.998;2023-04-03T16:30:49;5.10;99.90
30300;DHT22;17110;52.602;12.998;2023-04-03T16:33:15;5.00;99.90
30300;DHT22;17110;52.602;12.998;2023-04-03T16:35:42;5.00;99.90
30300;DHT22;17110;52.602;12.998;2023-04-03T16:38:09;4.60;99.90
30300;DHT22;17110;52.602;12.998;2023-04-03T16:40:39;4.60;99.90
30300;DHT22;17110;52.602;12.998;2023-04-03T16:43:14;4.10;99.90
30300;DHT22;17110;52.602;12.998;2023-04-03T16:45:40;4.50;99.90
30300;DHT22;17110;52.602;12.998;2023-04-03T16:48:10;4.60;99.90
30300;DHT22;17110;52.602;12.998;2023-04-03T16:50:40;4.80;99.90
30300;DHT22;17110;52.602;12.998;2023-04-03T16:53:06;4.70;99.90
30300;DHT22;17110;52.602;12.998;2023-04-03T16:55:35;4.30;99.90
30300;DHT22;17110;52.602;12.998;2023-04-03T16:58:13;4.70;99.90
30300;DHT22;17110;52.602;12.998;2023-04-03T17:00:40;4.60;99.90
30300;DHT22;17110;52.602;12.998;2023-04-03T17:03:08;4.10;99.90
30300;DHT22;17110;52.602;12.998;2023-04-03T17:05:38;5.00;99.90
30300;DHT22;17110;52.602;12.998;2023-04-03T17:08:05;4.60;99.90
30300;DHT22;17110;52.602;12.998;2023-04-03T17:10:32;4.70;99.90
30300;DHT22;17110;52.602;12.998;2023-04-03T17:13:01;4.40;99.90
30300;DHT22;17110;52.602;12.998;2023-04-03T17:15:26;4.60;99.90
30300;DHT22;17110;52.602;12.998;2023-04-03T17:17:52;4.80;99.90
30300;DHT22;17110;52.602;12.998;2023-04-03T17:20:21;4.50;99.90
30300;DHT22;17110;52.602;12.998;2023-04-03T17:22:47;4.80;99.90
30300;DHT22;17110;52.602;12.998;2023-04-03T17:25:13;4.60;99.90
30300;DHT22;17110;52.602;12.998;2023-04-03T17:27:40;4.40;99.90
30300;DHT22;17110;52.602;12.998;2023-04-03T17:30:06;4.30;99.90
30300;DHT22;17110;52.602;12.998;2023-04-03T17:32:32;4.20;99.90
30300;DHT22;17110;52.602;12.998;2023-04-03T17:34:58;4.40;99.90
30300;DHT22;17110;52.602;12.998;2023-04-03T17:37:24;4.90;99.90
30300;DHT22;17110;52.602;12.998;2023-04-03T17:39:50;4.50;99.90
30300;DHT22;17110;52.602;12.998;2023-04-03T17:42:15;3.80;99.90
30300;DHT22;17110;52.602;12.998;2023-04-03T17:44:41;4.20;99.90
30300;DHT22;17110;52.602;12.998;2023-04-03T17:47:07;4.50;99.90
30300;DHT22;17110;52.602;12.998;2023-04-03T17:49:33;4.90;99.90
30300;DHT22;17110;52.602;12.998;2023-04-03T17:52:01;4.40;99.90
30300;DHT22;17110;52.602;12.998;2023-04-03T17:54:26;4.00;99.90
30300;DHT22;17110;52.602;12.998;2023-04-03T17:56:52;4.60;99.90
30300;DHT22;17110;52.602;12.998;2023-04-03T17:59:21;4.50;99.90
30300;DHT22;17110;52.602;12.998;2023-04-03T18:01:51;4.50;99.90
30300;DHT22;17110;52.602;12.998;2023-04-03T18:04:17;4.20;99.90
30300;DHT22;17110;52.602;12.998;2023-04-03T18:06:45;4.10;99.90
30300;DHT22;17110;52.602;12.998;2023-04-03T18:09:19;4.00;99.90
30300;DHT22;17110;52.602;12.998;2023-04-03T18:11:49;4.30;99.90
30300;DHT22;17110;52.602;12.998;2023-04-03T18:14:19;4.10;99.90
30300;DHT22;17110;52.602;12.998;2023-04-03T18:16:46;4.50;99.90
30300;DHT22;17110;52.602;12.998;2023-04-03T18:19:12;4.30;99.90
30300;DHT22;17110;52.602;12.998;2023-04-03T18:21:44;4.20;99.90
30300;DHT22;17110;52.602;12.998;2023-04-03T18:24:13;4.00;99.90
30300;DHT22;17110;52.602;12.998;2023-04-03T18:26:41;4.20;99.90
30300;DHT22;17110;52.602;12.998;2023-04-03T18:29:12;3.90;99.90
30300;DHT22;17110;52.602;12.998;2023-04-03T18:31:44;3.60;99.90
30300;DHT22;17110;52.602;12.998;2023-04-03T18:34:14;4.30;99.90
30300;DHT22;17110;52.602;12.998;2023-04-03T18:36:41;3.90;99.90
30300;DHT22;17110;52.602;12.998;2023-04-03T18:39:09;3.80;99.90
30300;DHT22;17110;52.602;12.998;2023-04-03T18:41:37;4.10;99.90
30300;DHT22;17110;52.602;12.998;2023-04-03T18:44:09;3.80;99.90
30300;DHT22;17110;52.602;12.998;2023-04-03T18:46:36;3.80;99.90
30300;DHT22;17110;52.602;12.998;2023-04-03T18:49:02;4.30;99.90
30300;DHT22;17110;52.602;12.998;2023-04-03T18:51:28;3.70;99.90
30300;DHT22;17110;52.602;12.998;2023-04-03T18:53:54;3.70;99.90
30300;DHT22;17110;52.602;12.998;2023-04-03T18:56:22;4.00;99.90
30300;DHT22;17110;52.602;12.998;2023-04-03T18:58:49;3.80;99.90
30300;DHT22;17110;52.602;12.998;2023-04-03T19:01:15;3.60;99.90
30300;DHT22;17110;52.602;12.998;2023-04-03T19:03:41;3.90;99.90
30300;DHT22;17110;52.602;12.998;2023-04-03T19:06:09;3.20;99.90
30300;DHT22;17110;52.602;12.998;2023-04-03T19:08:36;3.20;99.90
30300;DHT22;17110;52.602;12.998;2023-04-03T19:11:04;3.30;99.90
30300;DHT22;17110;52.602;12.998;2023-04-03T19:13:34;3.30;99.90
30300;DHT22;17110;52.602;12.998;2023-04-03T19:16:02;3.60;99.90
30300;DHT22;17110;52.602;12.998;2023-04-03T19:18:34;3.20;99.90
30300;DHT22;17110;52.602;12.998;2023-04-03T19:21:00;3.80;99.90
30300;DHT22;17110;52.602;12.998;2023-04-03T19:23:28;3.30;99.90
30300;DHT22;17110;52.602;12.998;2023-04-03T19:26:04;3.30;99.90
30300;DHT22;17110;52.602;12.998;2023-04-03T19:28:30;3.50;99.90
30300;DHT22;17110;52.602;12.998;2023-04-03T19:30:56;2.80;99.90
30300;DHT22;17110;52.602;12.998;2023-04-03T19:33:22;3.00;99.90
30300;DHT22;17110;52.602;12.998;2023-04-03T19:35:49;2.80;99.90
30300;DHT22;17110;52.602;12.998;2023-04-03T19:40:48;2.50;99.90
30300;DHT22;17110;52.602;12.998;2023-04-03T19:43:18;2.40;99.90
30300;DHT22;17110;52.602;12.998;2023-04-03T19:45:44;2.40;99.90
30300;DHT22;17110;52.602;12.998;2023-04-03T19:48:14;2.70;99.90